createdAt,value
2022-08-14T00:01:54.970Z,24.60
2022-08-14T00:04:34.410Z,24.62
2022-08-14T00:07:08.694Z,24.63
2022-08-14T00:09:55.356Z,24.63
2022-08-14T00:12:24.743Z,24.57
2022-08-14T00:15:00.399Z,24.54
2022-08-14T00:17:29.681Z,24.51
2022-08-14T00:19:58.461Z,24.49
2022-08-14T00:22:56.129Z,24.46
2022-08-14T00:25:13.765Z,24.42
2022-08-14T00:27:42.486Z,24.40
2022-08-14T00:30:11.090Z,24.38
2022-08-14T00:32:53.229Z,24.35
2022-08-14T00:35:43.039Z,24.32
2022-08-14T00:38:10.800Z,24.31
2022-08-14T00:40:38.060Z,24.31
2022-08-14T00:43:06.437Z,24.29
2022-08-14T00:45:34.107Z,24.26
2022-08-14T00:48:01.075Z,24.24
2022-08-14T00:50:30.676Z,24.23
2022-08-14T00:53:00.350Z,24.21
2022-08-14T00:55:31.014Z,24.18
2022-08-14T00:58:18.145Z,24.16
2022-08-14T01:00:51.249Z,24.13
2022-08-14T01:03:20.118Z,24.07
2022-08-14T01:05:52.085Z,24.04
2022-08-14T01:08:51.792Z,24.03
2022-08-14T01:11:08.217Z,24.01
2022-08-14T01:13:42.505Z,23.98
2022-08-14T01:16:15.114Z,23.97
2022-08-14T01:19:02.137Z,23.97
2022-08-14T01:21:38.878Z,23.97
2022-08-14T01:24:24.871Z,23.98
2022-08-14T01:27:00.479Z,24.00
2022-08-14T01:29:52.012Z,24.01
2022-08-14T01:32:22.877Z,24.02
2022-08-14T01:35:18.976Z,24.01
2022-08-14T01:37:44.122Z,23.99
2022-08-14T01:40:11.930Z,23.97
2022-08-14T01:42:44.398Z,23.97
2022-08-14T01:45:17.947Z,23.96
2022-08-14T01:48:03.614Z,23.95
2022-08-14T01:50:33.764Z,23.95
2022-08-14T01:53:01.716Z,23.96
2022-08-14T01:55:32.348Z,23.96
2022-08-14T01:58:18.458Z,23.96
2022-08-14T02:00:48.247Z,23.95
2022-08-14T02:03:16.595Z,23.94
2022-08-14T02:05:43.678Z,23.94
2022-08-14T02:08:10.842Z,23.94
2022-08-14T02:10:46.371Z,23.95
2022-08-14T02:13:16.447Z,23.95
2022-08-14T02:15:44.283Z,23.98
2022-08-14T02:18:11.864Z,24.00
2022-08-14T02:20:42.266Z,23.99
2022-08-14T02:23:09.521Z,24.00
2022-08-14T02:25:39.518Z,24.02
2022-08-14T02:28:24.609Z,24.03
2022-08-14T02:30:53.623Z,24.03
2022-08-14T02:33:22.644Z,24.03
2022-08-14T02:35:53.404Z,24.05
2022-08-14T02:38:29.920Z,24.06
2022-08-14T02:41:01.182Z,24.05
2022-08-14T02:43:36.541Z,24.03
2022-08-14T02:46:09.109Z,24.04
2022-08-14T02:49:04.605Z,24.03
2022-08-14T02:51:30.680Z,24.04
2022-08-14T02:53:58.737Z,24.03
2022-08-14T02:56:30.711Z,24.04
2022-08-14T02:59:16.184Z,24.02
2022-08-14T03:01:50.790Z,24.02
2022-08-14T03:04:21.755Z,24.01
2022-08-14T03:06:57.357Z,23.98
2022-08-14T03:09:41.713Z,23.97
2022-08-14T03:12:30.926Z,23.94
2022-08-14T03:14:59.731Z,23.92
2022-08-14T03:17:32.031Z,23.91
2022-08-14T03:20:11.259Z,23.90
2022-08-14T03:22:41.888Z,23.90
2022-08-14T03:25:10.979Z,23.89
2022-08-14T03:27:48.228Z,23.88
2022-08-14T03:30:39.657Z,23.87
2022-08-14T03:33:11.910Z,23.86
2022-08-14T03:35:59.794Z,23.87
2022-08-14T03:39:12.463Z,23.86
2022-08-14T03:41:16.815Z,23.87
2022-08-14T03:43:57.160Z,23.87
2022-08-14T03:46:52.124Z,23.86
2022-08-14T03:49:28.853Z,23.85
2022-08-14T03:51:58.359Z,23.87
2022-08-14T03:54:28.531Z,23.89
2022-08-14T03:57:02.542Z,23.91
2022-08-14T03:59:31.269Z,23.94
2022-08-14T04:02:02.283Z,23.97
2022-08-14T04:04:31.887Z,24.00
2022-08-14T04:07:01.011Z,24.02
2022-08-14T04:09:28.043Z,24.07
2022-08-14T04:11:55.954Z,24.15
2022-08-14T04:14:23.738Z,24.21
2022-08-14T04:16:50.845Z,24.30
2022-08-14T04:19:20.756Z,24.38
2022-08-14T04:22:02.925Z,24.46
2022-08-14T04:24:37.943Z,24.55
2022-08-14T04:27:13.032Z,24.65
2022-08-14T04:29:45.116Z,24.75
2022-08-14T04:32:59.323Z,24.86
2022-08-14T04:35:07.205Z,25.01
2022-08-14T04:37:54.022Z,25.17
2022-08-14T04:40:40.592Z,25.36
2022-08-14T04:43:38.351Z,25.57
2022-08-14T04:46:56.351Z,25.79
2022-08-14T04:49:04.541Z,26.00
2022-08-14T04:51:46.334Z,26.17
2022-08-14T04:54:22.940Z,26.24
2022-08-14T04:56:52.014Z,26.29
2022-08-14T04:59:21.475Z,26.35
2022-08-14T05:01:53.915Z,26.42
2022-08-14T05:04:25.237Z,26.52
2022-08-14T05:06:54.260Z,26.61
2022-08-14T05:09:29.177Z,26.70
2022-08-14T05:12:00.659Z,26.79
2022-08-14T05:14:55.197Z,26.88
2022-08-14T05:17:32.141Z,26.96
2022-08-14T05:21:04.753Z,27.04
2022-08-14T05:22:59.977Z,27.15
2022-08-14T05:25:30.997Z,27.25
2022-08-14T05:28:24.387Z,27.38
2022-08-14T05:30:57.995Z,27.55
2022-08-14T05:33:26.428Z,27.79
2022-08-14T05:36:01.255Z,28.06
2022-08-14T05:38:31.354Z,28.38
2022-08-14T05:40:59.919Z,28.70
2022-08-14T05:43:40.754Z,28.97
2022-08-14T05:46:15.228Z,29.25
2022-08-14T05:48:42.964Z,29.50
2022-08-14T05:51:10.595Z,29.69
2022-08-14T05:53:37.504Z,29.85
2022-08-14T05:56:09.572Z,30.04
2022-08-14T05:58:41.082Z,30.22
2022-08-14T06:01:09.854Z,30.39
2022-08-14T06:03:37.281Z,30.57
2022-08-14T06:06:08.049Z,30.74
2022-08-14T06:08:40.910Z,30.92
2022-08-14T06:11:08.778Z,31.09
2022-08-14T06:13:45.457Z,31.26
2022-08-14T06:16:17.486Z,31.40
2022-08-14T06:18:47.536Z,31.51
2022-08-14T06:21:16.124Z,31.63
2022-08-14T06:23:44.714Z,31.73
2022-08-14T06:26:16.358Z,31.87
2022-08-14T06:28:47.924Z,32.01
2022-08-14T06:31:20.949Z,32.15
2022-08-14T06:35:11.124Z,32.30
2022-08-14T06:36:36.929Z,32.43
2022-08-14T06:39:04.418Z,32.46
2022-08-14T06:41:58.708Z,32.54
2022-08-14T06:44:32.638Z,32.64
2022-08-14T06:47:02.107Z,32.74
2022-08-14T06:49:30.197Z,32.84
2022-08-14T06:51:57.615Z,32.83
2022-08-14T06:54:31.064Z,32.79
2022-08-14T06:56:58.764Z,32.78
2022-08-14T06:59:25.596Z,32.80
2022-08-14T07:02:13.235Z,32.77
2022-08-14T07:04:59.107Z,32.71
2022-08-14T07:07:28.721Z,32.72
2022-08-14T07:09:56.656Z,32.89
2022-08-14T07:12:54.976Z,32.91
2022-08-14T07:15:11.239Z,32.96
2022-08-14T07:17:46.542Z,33.02
2022-08-14T07:20:31.007Z,33.14
2022-08-14T07:23:07.646Z,33.33
2022-08-14T07:25:37.492Z,33.56
2022-08-14T07:28:20.686Z,33.80
2022-08-14T07:30:50.915Z,34.06
2022-08-14T07:33:20.757Z,34.32
2022-08-14T07:35:58.483Z,34.51
2022-08-14T07:38:36.204Z,34.64
2022-08-14T07:41:11.738Z,34.79
2022-08-14T07:43:42.693Z,34.92
2022-08-14T07:46:11.083Z,35.04
2022-08-14T07:48:41.397Z,35.24
2022-08-14T07:51:11.213Z,35.47
2022-08-14T07:53:40.640Z,35.66
2022-08-14T07:56:36.789Z,35.83
2022-08-14T07:58:58.777Z,35.98
2022-08-14T08:01:26.554Z,36.07
2022-08-14T08:03:57.307Z,36.13
2022-08-14T08:06:27.558Z,36.16
2022-08-14T08:09:01.143Z,36.14
2022-08-14T08:11:34.832Z,36.16
2022-08-14T08:14:16.530Z,36.26
2022-08-14T08:16:45.934Z,36.36
2022-08-14T08:19:14.101Z,36.47
2022-08-14T08:21:43.846Z,36.64
2022-08-14T08:24:12.565Z,36.85
2022-08-14T08:26:47.447Z,37.06
2022-08-14T08:29:22.528Z,37.20
2022-08-14T08:31:55.399Z,37.29
2022-08-14T08:34:23.483Z,37.45
2022-08-14T08:36:51.040Z,37.66
2022-08-14T08:39:22.388Z,37.85
2022-08-14T08:41:50.653Z,37.99
2022-08-14T08:44:33.141Z,38.14
2022-08-14T08:47:06.519Z,38.42
2022-08-14T08:49:48.839Z,38.67
2022-08-14T08:52:31.281Z,38.92
2022-08-14T08:55:01.122Z,39.20
2022-08-14T08:57:36.063Z,39.43
2022-08-14T09:00:24.157Z,39.59
2022-08-14T09:02:54.835Z,39.65
2022-08-14T09:05:23.569Z,39.67
2022-08-14T09:07:50.770Z,39.78
2022-08-14T09:10:23.735Z,39.89
2022-08-14T09:12:56.361Z,39.98
2022-08-14T09:15:24.041Z,40.06
2022-08-14T09:17:51.291Z,40.11
2022-08-14T09:20:26.258Z,40.09
2022-08-14T09:22:59.206Z,39.99
2022-08-14T09:26:00.261Z,39.96
2022-08-14T09:28:13.280Z,39.98
2022-08-14T09:30:54.547Z,40.02
2022-08-14T09:33:55.969Z,40.14
2022-08-14T09:36:30.473Z,40.38
2022-08-14T09:39:11.788Z,40.61
2022-08-14T09:42:21.827Z,40.66
2022-08-14T09:45:30.370Z,40.64
2022-08-14T09:48:14.948Z,40.59
2022-08-14T09:54:19.269Z,40.59
2022-08-14T09:56:30.426Z,40.69
2022-08-14T09:59:01.141Z,40.87
2022-08-14T10:01:36.331Z,41.06
2022-08-14T10:04:35.054Z,41.24
2022-08-14T10:06:54.290Z,41.45
2022-08-14T10:09:21.240Z,41.61
2022-08-14T10:11:58.878Z,41.64
2022-08-14T10:14:35.209Z,41.69
2022-08-14T10:17:06.324Z,41.69
2022-08-14T10:19:35.536Z,41.62
2022-08-14T10:23:11.746Z,41.60
2022-08-14T10:24:59.852Z,41.65
2022-08-14T10:27:28.730Z,41.73
2022-08-14T10:30:04.698Z,41.86
2022-08-14T10:32:51.674Z,41.98
2022-08-14T10:35:22.345Z,42.07
2022-08-14T10:37:53.529Z,42.15
2022-08-14T10:40:38.329Z,42.16
2022-08-14T10:43:31.941Z,42.26
2022-08-14T10:46:21.591Z,42.46
2022-08-14T10:48:58.030Z,42.62
2022-08-14T10:51:26.705Z,42.75
2022-08-14T10:53:58.875Z,42.85
2022-08-14T10:56:35.858Z,42.97
2022-08-14T10:59:08.308Z,43.07
2022-08-14T11:01:41.216Z,43.15
2022-08-14T11:04:30.332Z,43.26
2022-08-14T11:06:57.848Z,43.41
2022-08-14T11:09:26.446Z,43.52
2022-08-14T11:12:34.392Z,43.52
2022-08-14T11:15:01.830Z,43.48
2022-08-14T11:17:31.786Z,43.48
2022-08-14T11:20:01.127Z,43.48
2022-08-14T11:22:55.590Z,43.43
2022-08-14T11:25:16.732Z,43.47
2022-08-14T11:27:45.214Z,43.55
2022-08-14T11:30:50.343Z,43.64
2022-08-14T11:33:05.367Z,43.68
2022-08-14T11:35:43.884Z,43.71
2022-08-14T11:38:14.069Z,43.80
2022-08-14T11:40:46.656Z,43.85
2022-08-14T11:43:14.907Z,43.73
2022-08-14T11:45:45.773Z,43.78
2022-08-14T11:49:01.876Z,43.68
2022-08-14T11:51:04.959Z,43.61
2022-08-14T11:53:35.595Z,43.56
2022-08-14T11:56:10.957Z,43.44
2022-08-14T11:58:38.706Z,43.34
2022-08-14T12:01:09.715Z,43.25
2022-08-14T12:03:46.831Z,43.13
2022-08-14T12:06:29.827Z,43.01
2022-08-14T12:09:08.748Z,42.76
2022-08-14T12:11:46.949Z,42.59
2022-08-14T12:14:30.625Z,42.45
2022-08-14T12:17:12.128Z,42.32
2022-08-14T12:19:51.502Z,42.19
2022-08-14T12:22:40.059Z,42.04
2022-08-14T12:25:15.514Z,41.95
2022-08-14T12:27:51.815Z,41.80
2022-08-14T12:30:43.396Z,41.70
2022-08-14T12:33:26.886Z,41.59
2022-08-14T12:36:04.791Z,41.49
2022-08-14T12:38:44.347Z,41.44
2022-08-14T12:41:21.191Z,41.42
2022-08-14T12:44:00.194Z,41.46
2022-08-14T12:46:35.035Z,41.52
2022-08-14T12:49:34.851Z,41.59
2022-08-14T12:52:02.968Z,41.63
2022-08-14T12:54:32.300Z,41.60
2022-08-14T12:57:20.593Z,41.54
2022-08-14T12:59:50.522Z,41.37
2022-08-14T13:02:26.598Z,41.18
2022-08-14T13:04:58.241Z,41.01
2022-08-14T13:07:32.547Z,40.85
2022-08-14T13:10:00.382Z,40.72
2022-08-14T13:12:56.789Z,40.57
2022-08-14T13:15:27.531Z,40.39
2022-08-14T13:17:56.933Z,40.25
2022-08-14T13:20:29.842Z,40.12
2022-08-14T13:23:03.005Z,40.01
2022-08-14T13:25:30.090Z,39.87
2022-08-14T13:28:01.815Z,39.81
2022-08-14T13:30:30.335Z,39.66
2022-08-14T13:33:06.822Z,39.55
2022-08-14T13:35:46.315Z,39.45
2022-08-14T13:38:13.673Z,39.25
2022-08-14T13:40:41.062Z,39.04
2022-08-14T13:43:09.719Z,38.90
2022-08-14T13:46:00.984Z,38.74
2022-08-14T13:48:32.692Z,38.55
2022-08-14T13:51:04.875Z,38.39
2022-08-14T13:53:37.798Z,38.24
2022-08-14T13:56:05.316Z,38.05
2022-08-14T13:58:35.589Z,37.85
2022-08-14T14:01:04.997Z,37.72
2022-08-14T14:03:35.205Z,37.55
2022-08-14T14:06:02.715Z,37.36
2022-08-14T14:08:45.619Z,37.13
2022-08-14T14:11:16.571Z,36.91
2022-08-14T14:13:46.457Z,36.74
2022-08-14T14:16:21.998Z,36.55
2022-08-14T14:19:09.489Z,36.32
2022-08-14T14:21:40.563Z,36.03
2022-08-14T14:24:14.663Z,35.77
2022-08-14T14:26:49.939Z,35.69
2022-08-14T14:29:19.303Z,35.72
2022-08-14T14:31:53.691Z,35.70
2022-08-14T14:34:29.301Z,35.71
2022-08-14T14:37:03.123Z,35.74
2022-08-14T14:39:35.196Z,35.75
2022-08-14T14:42:06.520Z,35.76
2022-08-14T14:44:36.123Z,35.76
2022-08-14T14:47:03.347Z,35.76
2022-08-14T14:49:51.329Z,35.65
2022-08-14T14:52:27.589Z,35.47
2022-08-14T14:54:56.820Z,35.33
2022-08-14T14:57:30.331Z,35.25
2022-08-14T15:00:05.996Z,35.26
2022-08-14T15:02:36.625Z,35.35
2022-08-14T15:05:09.180Z,35.49
2022-08-14T15:07:37.693Z,35.55
2022-08-14T15:10:27.613Z,35.55
2022-08-14T15:12:57.869Z,35.56
2022-08-14T15:15:28.509Z,35.60
2022-08-14T15:18:01.062Z,35.62
2022-08-14T15:20:31.452Z,35.65
2022-08-14T15:23:12.280Z,35.67
2022-08-14T15:25:41.517Z,35.69
2022-08-14T15:28:12.973Z,35.70
2022-08-14T15:30:41.114Z,35.69
2022-08-14T15:33:10.477Z,35.71
2022-08-14T15:35:45.002Z,35.73
2022-08-14T15:38:17.793Z,35.70
2022-08-14T15:40:51.524Z,35.65
2022-08-14T15:43:27.189Z,35.55
2022-08-14T15:45:56.533Z,35.46
2022-08-14T15:48:24.138Z,35.38
2022-08-14T15:50:51.925Z,35.32
2022-08-14T15:53:22.467Z,35.25
2022-08-14T15:55:50.869Z,35.18
2022-08-14T15:58:20.835Z,35.10
2022-08-14T16:01:07.237Z,35.06
2022-08-14T16:03:36.495Z,35.04
2022-08-14T16:06:15.662Z,34.98
2022-08-14T16:08:58.511Z,34.87
2022-08-14T16:11:26.155Z,34.68
2022-08-14T16:13:57.516Z,34.53
2022-08-14T16:16:34.571Z,34.38
2022-08-14T16:19:18.525Z,34.21
2022-08-14T16:22:02.030Z,34.07
2022-08-14T16:24:36.113Z,33.92
2022-08-14T16:27:38.778Z,33.77
2022-08-14T16:30:20.691Z,33.62
2022-08-14T16:32:55.320Z,33.49
2022-08-14T16:35:42.291Z,33.39
2022-08-14T16:38:44.918Z,33.28
2022-08-14T16:41:22.828Z,33.14
2022-08-14T16:43:52.387Z,33.04
2022-08-14T16:46:20.653Z,32.95
2022-08-14T16:48:55.480Z,32.85
2022-08-14T16:51:27.997Z,32.75
2022-08-14T16:53:58.174Z,32.68
2022-08-14T16:56:28.165Z,32.63
2022-08-14T16:59:09.544Z,32.57
2022-08-14T17:01:41.849Z,32.56
2022-08-14T17:04:25.273Z,32.41
2022-08-14T17:06:57.042Z,32.30
2022-08-14T17:09:31.490Z,32.26
2022-08-14T17:12:07.172Z,32.11
2022-08-14T17:14:58.103Z,31.95
2022-08-14T17:17:41.432Z,31.85
2022-08-14T17:20:34.736Z,31.84
2022-08-14T17:23:11.117Z,31.75
2022-08-14T17:25:38.417Z,31.66
2022-08-14T17:28:51.280Z,31.57
2022-08-14T17:31:02.496Z,31.37
2022-08-14T17:33:40.500Z,31.32
2022-08-14T17:36:20.224Z,31.30
2022-08-14T17:39:11.954Z,31.28
2022-08-14T17:42:02.025Z,31.20
2022-08-14T17:44:44.864Z,31.11
2022-08-14T17:47:14.703Z,31.06
2022-08-14T17:49:52.693Z,31.00
2022-08-14T17:52:34.458Z,30.94
2022-08-14T17:55:06.845Z,30.87
2022-08-14T17:57:35.217Z,30.80
2022-08-14T18:00:16.407Z,30.75
2022-08-14T18:02:51.000Z,30.67
2022-08-14T18:05:23.764Z,30.59
2022-08-14T18:08:33.572Z,30.57
2022-08-14T18:10:58.791Z,30.56
2022-08-14T18:13:50.745Z,30.43
2022-08-14T18:16:20.283Z,30.24
2022-08-14T18:18:50.355Z,30.18
2022-08-14T18:21:42.677Z,30.24
2022-08-14T18:24:28.300Z,30.31
2022-08-14T18:27:01.738Z,30.16
2022-08-14T18:29:31.591Z,30.13
2022-08-14T18:31:59.965Z,30.11
2022-08-14T18:34:37.600Z,30.13
2022-08-14T18:37:17.276Z,30.21
2022-08-14T18:40:02.267Z,30.07
2022-08-14T18:42:32.560Z,30.00
2022-08-14T18:45:01.378Z,29.94
2022-08-14T18:47:32.622Z,29.88
2022-08-14T18:50:27.103Z,29.81
2022-08-14T18:53:06.942Z,29.67
2022-08-14T18:55:47.478Z,29.58
2022-08-14T18:58:30.465Z,29.50
2022-08-14T19:01:01.670Z,29.37
2022-08-14T19:03:36.858Z,29.24
2022-08-14T19:06:08.790Z,29.11
2022-08-14T19:08:47.142Z,28.95
2022-08-14T19:11:32.793Z,28.79
2022-08-14T19:14:05.011Z,28.63
2022-08-14T19:16:36.295Z,28.42
2022-08-14T19:19:08.760Z,28.25
2022-08-14T19:21:40.877Z,28.14
2022-08-14T19:24:27.585Z,28.01
2022-08-14T19:27:16.383Z,27.92
2022-08-14T19:29:47.828Z,27.84
2022-08-14T19:32:36.624Z,27.81
2022-08-14T19:35:16.534Z,27.78
2022-08-14T19:37:54.951Z,27.72
2022-08-14T19:40:42.792Z,27.66
2022-08-14T19:43:10.237Z,27.56
2022-08-14T19:45:38.379Z,27.49
2022-08-14T19:48:13.408Z,27.43
2022-08-14T19:50:44.349Z,27.39
2022-08-14T19:53:17.588Z,27.34
2022-08-14T19:55:57.127Z,27.30
2022-08-14T19:58:54.002Z,27.25
2022-08-14T20:01:26.282Z,27.21
2022-08-14T20:04:45.159Z,27.15
2022-08-14T20:06:55.883Z,27.08
2022-08-14T20:11:08.125Z,27.04
2022-08-14T20:12:35.334Z,26.99
2022-08-14T20:15:08.830Z,26.93
2022-08-14T20:17:40.444Z,26.88
2022-08-14T20:20:32.043Z,26.85
2022-08-14T20:23:11.349Z,26.81
2022-08-14T20:25:45.438Z,26.76
2022-08-14T20:28:30.664Z,26.71
2022-08-14T20:31:18.121Z,26.67
2022-08-14T20:34:24.675Z,26.63
2022-08-14T20:37:04.436Z,26.58
2022-08-14T20:39:34.434Z,26.54
2022-08-14T20:42:34.957Z,26.50
2022-08-14T20:45:24.641Z,26.45
2022-08-14T20:48:01.499Z,26.40
2022-08-14T20:50:29.831Z,26.38
2022-08-14T20:53:05.844Z,26.35
2022-08-14T20:55:41.682Z,26.32
2022-08-14T20:58:41.965Z,26.32
2022-08-14T21:01:11.391Z,26.32
2022-08-14T21:03:56.898Z,26.31
2022-08-14T21:07:22.951Z,26.28
2022-08-14T21:10:03.439Z,26.29
2022-08-14T21:12:34.984Z,26.28
2022-08-14T21:15:00.914Z,26.24
2022-08-14T21:17:29.754Z,26.20
2022-08-14T21:19:56.949Z,26.16
2022-08-14T21:22:23.890Z,26.10
2022-08-14T21:25:02.141Z,26.06
2022-08-14T21:27:37.110Z,26.00
2022-08-14T21:30:08.762Z,25.95
2022-08-14T21:32:50.084Z,25.91
2022-08-14T21:35:26.044Z,25.87
2022-08-14T21:37:53.995Z,25.85
2022-08-14T21:40:41.522Z,25.83
2022-08-14T21:43:14.859Z,25.81
2022-08-14T21:45:45.156Z,25.78
2022-08-14T21:48:21.010Z,25.77
2022-08-14T21:51:02.091Z,25.76
2022-08-14T21:53:58.183Z,25.77
2022-08-14T21:56:38.763Z,25.75
2022-08-14T21:59:17.832Z,25.74
2022-08-14T22:02:01.780Z,25.73
2022-08-14T22:04:40.022Z,25.71
2022-08-14T22:07:10.855Z,25.69
2022-08-14T22:09:43.000Z,25.67
2022-08-14T22:12:57.990Z,25.66
2022-08-14T22:15:07.014Z,25.65
2022-08-14T22:17:34.803Z,25.64
2022-08-14T22:20:07.300Z,25.62
2022-08-14T22:22:34.985Z,25.62
2022-08-14T22:25:09.098Z,25.61
2022-08-14T22:27:55.447Z,25.60
2022-08-14T22:30:24.347Z,25.59
2022-08-14T22:32:57.894Z,25.58
2022-08-14T22:35:26.790Z,25.58
2022-08-14T22:38:34.680Z,25.58
2022-08-14T22:41:07.080Z,25.58
2022-08-14T22:43:31.435Z,25.56
2022-08-14T22:46:02.114Z,25.54
2022-08-14T22:48:31.903Z,25.53
2022-08-14T22:50:59.566Z,25.53
2022-08-14T22:53:29.431Z,25.53
2022-08-14T22:55:58.314Z,25.53
2022-08-14T22:58:30.425Z,25.53
2022-08-14T23:01:02.227Z,25.53
2022-08-14T23:03:34.768Z,25.53
2022-08-14T23:07:02.019Z,25.53
2022-08-14T23:09:01.396Z,25.55
2022-08-14T23:11:46.238Z,25.56
2022-08-14T23:14:23.864Z,25.57
2022-08-14T23:16:57.115Z,25.58
2022-08-14T23:19:25.718Z,25.59
2022-08-14T23:22:01.041Z,25.61
2022-08-14T23:24:27.994Z,25.63
2022-08-14T23:26:56.194Z,25.64
2022-08-14T23:29:23.110Z,25.63
2022-08-14T23:31:50.153Z,25.65
2022-08-14T23:34:20.920Z,25.65
2022-08-14T23:36:54.377Z,25.64
2022-08-14T23:39:30.531Z,25.63
2022-08-14T23:42:02.317Z,25.62
2022-08-14T23:44:35.205Z,25.61
2022-08-14T23:47:10.916Z,25.60
2022-08-14T23:49:56.485Z,25.60
2022-08-14T23:52:51.050Z,25.59
2022-08-14T23:55:15.628Z,25.58
2022-08-14T23:57:43.667Z,25.59
